createdAt,value
2022-07-31T00:00:48.417Z,27.84
2022-07-31T00:01:48.417Z,27.81
2022-07-31T00:02:48.420Z,27.77
2022-07-31T00:03:48.527Z,27.78
2022-07-31T00:04:48.420Z,27.79
2022-07-31T00:05:48.421Z,27.81
2022-07-31T00:06:48.423Z,27.78
2022-07-31T00:07:48.422Z,27.78
2022-07-31T00:08:48.422Z,27.79
2022-07-31T00:09:53.936Z,27.75
2022-07-31T00:10:48.426Z,27.81
2022-07-31T00:11:48.425Z,27.81
2022-07-31T00:12:48.427Z,27.77
2022-07-31T00:13:57.888Z,27.81
2022-07-31T00:14:48.427Z,27.78
2022-07-31T00:15:48.427Z,27.78
2022-07-31T00:16:48.429Z,27.75
2022-07-31T00:17:48.429Z,27.79
2022-07-31T00:18:48.431Z,27.79
2022-07-31T00:19:48.432Z,27.79
2022-07-31T00:20:48.432Z,27.81
2022-07-31T00:21:48.431Z,27.82
2022-07-31T00:22:48.435Z,27.74
2022-07-31T00:23:48.433Z,27.75
2022-07-31T00:24:48.436Z,27.77
2022-07-31T00:25:48.435Z,27.81
2022-07-31T00:26:48.436Z,27.72
2022-07-31T00:27:48.437Z,27.77
2022-07-31T00:28:48.438Z,27.77
2022-07-31T00:29:48.437Z,27.84
2022-07-31T00:30:48.440Z,27.82
2022-07-31T00:31:48.438Z,27.81
2022-07-31T00:32:48.948Z,27.70
2022-07-31T00:33:48.442Z,27.81
2022-07-31T00:34:48.443Z,27.78
2022-07-31T00:35:48.442Z,27.84
2022-07-31T00:36:48.444Z,27.84
2022-07-31T00:37:48.446Z,27.79
2022-07-31T00:38:48.446Z,27.79
2022-07-31T00:39:48.445Z,27.79
2022-07-31T00:40:48.454Z,27.78
2022-07-31T00:41:48.452Z,27.81
2022-07-31T00:42:48.448Z,27.75
2022-07-31T00:43:48.448Z,27.72
2022-07-31T00:44:48.557Z,27.75
2022-07-31T00:45:50.489Z,27.75
2022-07-31T00:46:48.454Z,27.77
2022-07-31T00:47:48.451Z,27.77
2022-07-31T00:48:48.504Z,27.78
2022-07-31T00:49:48.452Z,27.77
2022-07-31T00:50:48.455Z,27.77
2022-07-31T00:51:48.455Z,27.72
2022-07-31T00:52:48.456Z,27.70
2022-07-31T00:53:48.455Z,27.78
2022-07-31T00:54:48.608Z,27.79
2022-07-31T00:55:51.254Z,27.74
2022-07-31T00:56:48.459Z,27.75
2022-07-31T00:57:48.459Z,27.82
2022-07-31T00:58:48.460Z,27.75
2022-07-31T00:59:48.461Z,27.81
2022-07-31T01:00:48.525Z,27.74
2022-07-31T01:01:48.462Z,27.75
2022-07-31T01:02:48.462Z,27.79
2022-07-31T01:03:48.464Z,27.78
2022-07-31T01:04:48.476Z,27.82
2022-07-31T01:05:48.468Z,27.77
2022-07-31T01:06:48.466Z,27.77
2022-07-31T01:07:48.466Z,27.77
2022-07-31T01:08:48.474Z,27.78
2022-07-31T01:09:48.468Z,27.70
2022-07-31T01:10:48.469Z,27.77
2022-07-31T01:11:48.470Z,27.70
2022-07-31T01:12:52.323Z,27.81
2022-07-31T01:13:48.471Z,27.82
2022-07-31T01:14:48.473Z,27.81
2022-07-31T01:15:48.474Z,27.79
2022-07-31T01:16:48.474Z,27.70
2022-07-31T01:17:48.473Z,27.78
2022-07-31T01:18:48.475Z,27.74
2022-07-31T01:19:48.474Z,27.84
2022-07-31T01:20:48.476Z,27.82
2022-07-31T01:21:48.477Z,27.75
2022-07-31T01:22:48.479Z,27.72
2022-07-31T01:23:51.019Z,27.78
2022-07-31T01:24:48.479Z,27.79
2022-07-31T01:25:48.479Z,27.72
2022-07-31T01:26:48.480Z,27.82
2022-07-31T01:27:49.336Z,27.74
2022-07-31T01:28:48.482Z,27.74
2022-07-31T01:29:48.482Z,27.75
2022-07-31T01:30:52.958Z,27.72
2022-07-31T01:31:48.484Z,27.70
2022-07-31T01:32:48.485Z,27.70
2022-07-31T01:33:48.484Z,27.67
2022-07-31T01:34:48.487Z,27.75
2022-07-31T01:35:48.487Z,27.79
2022-07-31T01:36:48.489Z,27.81
2022-07-31T01:37:48.488Z,27.74
2022-07-31T01:38:48.489Z,27.69
2022-07-31T01:39:48.492Z,27.75
2022-07-31T01:40:48.491Z,27.66
2022-07-31T01:41:48.491Z,27.82
2022-07-31T01:42:48.496Z,27.81
2022-07-31T01:43:48.495Z,27.81
2022-07-31T01:44:48.495Z,27.75
2022-07-31T01:45:48.493Z,27.74
2022-07-31T01:46:48.495Z,27.70
2022-07-31T01:47:48.499Z,27.78
2022-07-31T01:48:48.549Z,27.69
2022-07-31T01:49:48.497Z,27.77
2022-07-31T01:50:48.499Z,27.75
2022-07-31T01:51:48.503Z,27.70
2022-07-31T01:52:48.499Z,27.75
2022-07-31T01:53:48.502Z,27.72
2022-07-31T01:54:48.603Z,27.67
2022-07-31T01:56:02.926Z,27.74
2022-07-31T01:56:48.503Z,27.77
2022-07-31T01:57:48.505Z,27.77
2022-07-31T01:58:48.504Z,27.70
2022-07-31T01:59:48.506Z,27.78
2022-07-31T02:00:48.518Z,27.74
2022-07-31T02:01:48.628Z,27.70
2022-07-31T02:02:48.508Z,27.75
2022-07-31T02:03:48.508Z,27.75
2022-07-31T02:04:48.508Z,27.75
2022-07-31T02:05:48.512Z,27.66
2022-07-31T02:06:48.509Z,27.77
2022-07-31T02:07:48.512Z,27.70
2022-07-31T02:08:48.510Z,27.74
2022-07-31T02:09:52.013Z,27.70
2022-07-31T02:10:48.513Z,27.70
2022-07-31T02:11:54.400Z,27.78
2022-07-31T02:12:48.515Z,27.67
2022-07-31T02:13:48.516Z,27.75
2022-07-31T02:14:48.517Z,27.66
2022-07-31T02:15:48.520Z,27.77
2022-07-31T02:16:48.517Z,27.67
2022-07-31T02:17:48.518Z,27.69
2022-07-31T02:18:48.519Z,27.74
2022-07-31T02:19:59.971Z,27.74
2022-07-31T02:20:48.523Z,27.70
2022-07-31T02:21:48.523Z,27.75
2022-07-31T02:22:48.523Z,27.74
2022-07-31T02:23:48.528Z,27.69
2022-07-31T02:24:48.522Z,27.70
2022-07-31T02:25:48.524Z,27.67
2022-07-31T02:26:48.525Z,27.67
2022-07-31T02:27:54.238Z,27.65
2022-07-31T02:28:48.525Z,27.72
2022-07-31T02:29:48.529Z,27.69
2022-07-31T02:30:48.527Z,27.72
2022-07-31T02:31:48.528Z,27.72
2022-07-31T02:32:48.529Z,27.65
2022-07-31T02:33:48.529Z,27.65
2022-07-31T02:34:48.529Z,27.67
2022-07-31T02:35:48.537Z,27.66
2022-07-31T02:36:48.531Z,27.77
2022-07-31T02:37:48.532Z,27.67
2022-07-31T02:38:48.532Z,27.63
2022-07-31T02:39:48.534Z,27.69
2022-07-31T02:40:48.534Z,27.63
2022-07-31T02:41:48.535Z,27.65
2022-07-31T02:42:48.535Z,27.72
2022-07-31T02:43:48.537Z,27.67
2022-07-31T02:44:48.536Z,27.65
2022-07-31T02:45:48.539Z,27.65
2022-07-31T02:46:48.538Z,27.74
2022-07-31T02:47:48.542Z,27.63
2022-07-31T02:48:48.563Z,27.69
2022-07-31T02:49:48.541Z,27.74
2022-07-31T02:50:48.542Z,27.67
2022-07-31T02:51:48.542Z,27.70
2022-07-31T02:52:48.546Z,27.65
2022-07-31T02:53:48.544Z,27.72
2022-07-31T02:54:48.695Z,27.65
2022-07-31T02:55:48.547Z,27.69
2022-07-31T02:56:48.547Z,27.72
2022-07-31T02:57:48.547Z,27.67
2022-07-31T02:58:48.551Z,27.65
2022-07-31T02:59:48.550Z,27.63
2022-07-31T03:00:48.626Z,27.65
2022-07-31T03:01:48.550Z,27.65
2022-07-31T03:02:48.550Z,27.63
2022-07-31T03:03:48.551Z,27.70
2022-07-31T03:04:48.551Z,27.65
2022-07-31T03:05:48.555Z,27.62
2022-07-31T03:06:48.556Z,27.63
2022-07-31T03:07:48.555Z,27.69
2022-07-31T03:08:48.555Z,27.70
2022-07-31T03:09:48.556Z,27.63
2022-07-31T03:10:48.555Z,27.65
2022-07-31T03:11:48.557Z,27.67
2022-07-31T03:12:48.557Z,27.66
2022-07-31T03:13:48.557Z,27.66
2022-07-31T03:14:48.557Z,27.67
2022-07-31T03:15:50.766Z,27.67
2022-07-31T03:16:48.559Z,27.70
2022-07-31T03:17:48.594Z,27.65
2022-07-31T03:18:48.561Z,27.66
2022-07-31T03:19:48.563Z,27.74
2022-07-31T03:20:48.562Z,27.69
2022-07-31T03:21:48.563Z,27.70
2022-07-31T03:22:48.563Z,27.70
2022-07-31T03:23:48.566Z,27.77
2022-07-31T03:24:48.565Z,27.66
2022-07-31T03:25:48.566Z,27.72
2022-07-31T03:26:48.566Z,27.65
2022-07-31T03:27:56.358Z,27.69
2022-07-31T03:28:48.569Z,27.67
2022-07-31T03:29:48.570Z,27.67
2022-07-31T03:30:48.568Z,27.66
2022-07-31T03:31:48.572Z,27.60
2022-07-31T03:32:48.569Z,27.67
2022-07-31T03:33:48.572Z,27.62
2022-07-31T03:34:48.573Z,27.66
2022-07-31T03:35:48.575Z,27.72
2022-07-31T03:36:48.573Z,27.65
2022-07-31T03:37:48.574Z,27.66
2022-07-31T03:38:50.633Z,27.62
2022-07-31T03:39:48.577Z,27.66
2022-07-31T03:40:48.575Z,27.67
2022-07-31T03:41:48.576Z,27.70
2022-07-31T03:42:48.577Z,27.65
2022-07-31T03:43:48.758Z,27.72
2022-07-31T03:44:48.583Z,27.66
2022-07-31T03:45:48.580Z,27.75
2022-07-31T03:46:48.580Z,27.72
2022-07-31T03:47:48.582Z,27.69
2022-07-31T03:48:48.644Z,27.67
2022-07-31T03:49:48.583Z,27.65
2022-07-31T03:50:48.582Z,27.62
2022-07-31T03:51:48.587Z,27.66
2022-07-31T03:52:48.585Z,27.63
2022-07-31T03:53:48.587Z,27.72
2022-07-31T03:54:48.836Z,27.62
2022-07-31T03:55:48.586Z,27.60
2022-07-31T03:56:48.697Z,27.66
2022-07-31T03:57:48.589Z,27.60
2022-07-31T03:58:51.588Z,27.69
2022-07-31T03:59:48.813Z,27.60
2022-07-31T04:00:48.592Z,27.59
2022-07-31T04:01:57.949Z,27.59
2022-07-31T04:02:48.675Z,27.59
2022-07-31T04:03:48.591Z,27.65
2022-07-31T04:04:48.592Z,27.66
2022-07-31T04:05:48.593Z,27.60
2022-07-31T04:06:48.594Z,27.60
2022-07-31T04:07:48.596Z,27.65
2022-07-31T04:08:48.595Z,27.62
2022-07-31T04:09:48.596Z,27.70
2022-07-31T04:10:48.596Z,27.69
2022-07-31T04:11:48.597Z,27.62
2022-07-31T04:12:48.597Z,27.66
2022-07-31T04:13:48.599Z,27.67
2022-07-31T04:14:48.600Z,27.59
2022-07-31T04:15:48.602Z,27.65
2022-07-31T04:16:48.598Z,27.67
2022-07-31T04:17:48.601Z,27.63
2022-07-31T04:18:51.090Z,27.59
2022-07-31T04:19:48.602Z,27.63
2022-07-31T04:20:48.602Z,27.54
2022-07-31T04:21:48.603Z,27.62
2022-07-31T04:22:49.241Z,27.59
2022-07-31T04:23:49.530Z,27.57
2022-07-31T04:24:48.604Z,27.66
2022-07-31T04:25:48.609Z,27.66
2022-07-31T04:26:48.608Z,27.70
2022-07-31T04:27:49.043Z,27.63
2022-07-31T04:28:48.607Z,27.59
2022-07-31T04:29:48.610Z,27.69
2022-07-31T04:30:48.608Z,27.57
2022-07-31T04:31:48.610Z,27.59
2022-07-31T04:32:48.609Z,27.69
2022-07-31T04:33:51.249Z,27.67
2022-07-31T04:34:48.610Z,27.57
2022-07-31T04:35:48.614Z,27.57
2022-07-31T04:36:48.612Z,27.55
2022-07-31T04:37:48.768Z,27.55
2022-07-31T04:38:48.614Z,27.59
2022-07-31T04:39:48.616Z,27.59
2022-07-31T04:40:48.614Z,27.50
2022-07-31T04:41:48.616Z,27.60
2022-07-31T04:42:48.616Z,27.55
2022-07-31T04:43:48.623Z,27.57
2022-07-31T04:44:48.618Z,27.57
2022-07-31T04:45:48.618Z,27.62
2022-07-31T04:46:48.618Z,27.57
2022-07-31T04:47:48.620Z,27.59
2022-07-31T04:48:49.429Z,27.62
2022-07-31T04:49:48.622Z,27.59
2022-07-31T04:50:48.621Z,27.63
2022-07-31T04:51:48.624Z,27.65
2022-07-31T04:52:48.622Z,27.59
2022-07-31T04:53:48.625Z,27.63
2022-07-31T04:54:48.624Z,27.62
2022-07-31T04:55:48.626Z,27.57
2022-07-31T04:56:48.657Z,27.55
2022-07-31T04:57:48.627Z,27.59
2022-07-31T04:58:48.628Z,27.55
2022-07-31T04:59:59.265Z,27.54
2022-07-31T05:00:48.627Z,27.50
2022-07-31T05:01:48.755Z,27.57
2022-07-31T05:02:48.629Z,27.63
2022-07-31T05:03:48.632Z,27.57
2022-07-31T05:04:52.612Z,27.65
2022-07-31T05:05:48.633Z,27.55
2022-07-31T05:06:48.631Z,27.69
2022-07-31T05:07:48.634Z,27.55
2022-07-31T05:08:48.633Z,27.55
2022-07-31T05:09:48.635Z,27.63
2022-07-31T05:10:48.634Z,27.60
2022-07-31T05:11:48.636Z,27.66
2022-07-31T05:12:48.634Z,27.54
2022-07-31T05:13:48.637Z,27.63
2022-07-31T05:14:48.637Z,27.57
2022-07-31T05:15:48.640Z,27.60
2022-07-31T05:16:48.637Z,27.60
2022-07-31T05:17:48.638Z,27.65
2022-07-31T05:18:48.640Z,27.62
2022-07-31T05:19:48.641Z,27.59
2022-07-31T05:20:48.639Z,27.59
2022-07-31T05:21:54.040Z,27.57
2022-07-31T05:22:48.642Z,27.62
2022-07-31T05:23:48.645Z,27.47
2022-07-31T05:24:48.642Z,27.63
2022-07-31T05:25:48.647Z,27.57
2022-07-31T05:26:48.644Z,27.54
2022-07-31T05:27:50.127Z,27.50
2022-07-31T05:28:48.645Z,27.59
2022-07-31T05:29:48.646Z,27.57
2022-07-31T05:30:48.647Z,27.60
2022-07-31T05:32:00.027Z,27.51
2022-07-31T05:32:48.648Z,27.51
2022-07-31T05:33:48.648Z,27.60
2022-07-31T05:34:48.651Z,27.60
2022-07-31T05:35:48.650Z,27.50
2022-07-31T05:36:48.651Z,27.57
2022-07-31T05:37:48.651Z,27.62
2022-07-31T05:38:48.652Z,27.57
2022-07-31T05:39:48.654Z,27.57
2022-07-31T05:40:48.653Z,27.59
2022-07-31T05:41:48.653Z,27.57
2022-07-31T05:42:48.660Z,27.55
2022-07-31T05:43:48.655Z,27.57
2022-07-31T05:44:48.656Z,27.60
2022-07-31T05:45:48.661Z,27.54
2022-07-31T05:46:48.658Z,27.62
2022-07-31T05:47:48.659Z,27.63
2022-07-31T05:48:48.692Z,27.59
2022-07-31T05:49:48.665Z,27.59
2022-07-31T05:50:48.658Z,27.65
2022-07-31T05:51:48.661Z,27.62
2022-07-31T05:52:48.659Z,27.50
2022-07-31T05:53:48.661Z,27.55
2022-07-31T05:54:48.664Z,27.60
2022-07-31T05:55:48.664Z,27.57
2022-07-31T05:56:48.663Z,27.60
2022-07-31T05:57:48.665Z,27.62
2022-07-31T05:58:48.693Z,27.54
2022-07-31T05:59:48.666Z,27.65
2022-07-31T06:00:48.667Z,27.57
2022-07-31T06:01:48.751Z,27.60
2022-07-31T06:02:48.667Z,27.60
2022-07-31T06:03:52.245Z,27.60
2022-07-31T06:04:48.669Z,27.57
2022-07-31T06:05:48.670Z,27.51
2022-07-31T06:06:48.670Z,27.62
2022-07-31T06:07:51.958Z,27.60
2022-07-31T06:08:48.670Z,27.57
2022-07-31T06:09:48.673Z,27.54
2022-07-31T06:10:48.672Z,27.59
2022-07-31T06:11:48.675Z,27.59
2022-07-31T06:12:48.671Z,27.62
2022-07-31T06:13:48.674Z,27.54
2022-07-31T06:14:48.675Z,27.59
2022-07-31T06:15:49.339Z,27.65
2022-07-31T06:16:48.676Z,27.60
2022-07-31T06:17:48.677Z,27.57
2022-07-31T06:18:48.679Z,27.59
2022-07-31T06:19:48.679Z,27.55
2022-07-31T06:20:48.679Z,27.60
2022-07-31T06:21:48.679Z,27.57
2022-07-31T06:22:48.684Z,27.59
2022-07-31T06:23:48.679Z,27.49
2022-07-31T06:24:48.682Z,27.62
2022-07-31T06:25:48.871Z,27.63
2022-07-31T06:26:48.683Z,27.55
2022-07-31T06:27:56.514Z,27.60
2022-07-31T06:28:49.518Z,27.59
2022-07-31T06:29:48.683Z,27.54
2022-07-31T06:30:48.686Z,27.57
2022-07-31T06:31:48.685Z,27.54
2022-07-31T06:32:48.685Z,27.57
2022-07-31T06:33:48.926Z,27.59
2022-07-31T06:34:48.688Z,27.55
2022-07-31T06:35:48.688Z,27.57
2022-07-31T06:36:48.690Z,27.57
2022-07-31T06:37:48.689Z,27.59
2022-07-31T06:38:48.692Z,27.57
2022-07-31T06:39:54.232Z,27.57
2022-07-31T06:40:48.692Z,27.59
2022-07-31T06:41:48.694Z,27.51
2022-07-31T06:42:48.696Z,27.55
2022-07-31T06:43:48.693Z,27.59
2022-07-31T06:44:48.695Z,27.62
2022-07-31T06:45:51.228Z,27.59
2022-07-31T06:46:49.614Z,27.57
2022-07-31T06:47:48.696Z,27.62
2022-07-31T06:48:48.737Z,27.50
2022-07-31T06:49:48.697Z,27.59
2022-07-31T06:50:48.699Z,27.50
2022-07-31T06:51:48.701Z,27.65
2022-07-31T06:52:48.700Z,27.60
2022-07-31T06:53:48.699Z,27.59
2022-07-31T06:54:48.802Z,27.54
2022-07-31T06:55:48.700Z,27.62
2022-07-31T06:56:48.701Z,27.60
2022-07-31T06:57:48.702Z,27.62
2022-07-31T06:58:48.704Z,27.62
2022-07-31T06:59:48.706Z,27.54
2022-07-31T07:00:48.705Z,27.66
2022-07-31T07:01:48.734Z,27.60
2022-07-31T07:02:48.707Z,27.55
2022-07-31T07:03:48.708Z,27.59
2022-07-31T07:05:05.164Z,27.63
2022-07-31T07:05:48.707Z,27.59
2022-07-31T07:06:48.710Z,27.55
2022-07-31T07:07:48.709Z,27.55
2022-07-31T07:08:48.712Z,27.57
2022-07-31T07:09:48.710Z,27.62
2022-07-31T07:10:48.711Z,27.59
2022-07-31T07:11:51.843Z,27.57
2022-07-31T07:12:48.712Z,27.54
2022-07-31T07:13:48.711Z,27.54
2022-07-31T07:14:48.715Z,27.54
2022-07-31T07:15:48.718Z,27.60
2022-07-31T07:16:48.714Z,27.57
2022-07-31T07:17:48.715Z,27.66
2022-07-31T07:18:48.717Z,27.62
2022-07-31T07:19:54.608Z,27.69
2022-07-31T07:20:48.718Z,27.62
2022-07-31T07:21:48.717Z,27.59
2022-07-31T07:22:48.721Z,27.69
2022-07-31T07:23:48.718Z,27.65
2022-07-31T07:24:48.720Z,27.59
2022-07-31T07:25:48.721Z,27.55
2022-07-31T07:26:48.721Z,27.60
2022-07-31T07:27:48.723Z,27.66
2022-07-31T07:28:48.724Z,27.51
2022-07-31T07:29:48.722Z,27.55
2022-07-31T07:30:48.725Z,27.63
2022-07-31T07:31:48.725Z,27.60
2022-07-31T07:32:48.726Z,27.57
2022-07-31T07:33:48.724Z,27.62
2022-07-31T07:34:48.727Z,27.62
2022-07-31T07:35:48.729Z,27.63
2022-07-31T07:36:48.728Z,27.54
2022-07-31T07:37:48.729Z,27.60
2022-07-31T07:38:48.731Z,27.62
2022-07-31T07:39:48.729Z,27.69
2022-07-31T07:40:48.730Z,27.62
2022-07-31T07:41:48.730Z,27.62
2022-07-31T07:42:48.733Z,27.62
2022-07-31T07:43:51.639Z,27.63
2022-07-31T07:44:48.733Z,27.65
2022-07-31T07:45:48.734Z,27.55
2022-07-31T07:46:48.735Z,27.59
2022-07-31T07:48:05.481Z,27.66
2022-07-31T07:48:48.785Z,27.62
2022-07-31T07:49:48.735Z,27.60
2022-07-31T07:50:48.737Z,27.60
2022-07-31T07:51:59.302Z,27.59
2022-07-31T07:52:48.740Z,27.60
2022-07-31T07:53:48.748Z,27.65
2022-07-31T07:54:48.741Z,27.59
2022-07-31T07:55:48.740Z,27.66
2022-07-31T07:56:48.741Z,27.59
2022-07-31T07:57:48.741Z,27.60
2022-07-31T07:58:48.742Z,27.55
2022-07-31T07:59:48.750Z,27.54
2022-07-31T08:00:48.785Z,27.57
2022-07-31T08:01:48.746Z,27.65
2022-07-31T08:03:46.787Z,27.62
2022-07-31T08:03:52.096Z,27.62
2022-07-31T08:04:48.747Z,27.60
2022-07-31T08:05:48.747Z,27.65
2022-07-31T08:06:48.748Z,27.62
2022-07-31T08:07:48.749Z,27.62
2022-07-31T08:08:48.755Z,27.63
2022-07-31T08:09:48.755Z,27.65
2022-07-31T08:10:48.751Z,27.63
2022-07-31T08:11:48.751Z,27.63
2022-07-31T08:12:48.752Z,27.59
2022-07-31T08:13:51.056Z,27.57
2022-07-31T08:14:48.755Z,27.63
2022-07-31T08:15:48.754Z,27.57
2022-07-31T08:16:48.755Z,27.60
2022-07-31T08:17:48.754Z,27.66
2022-07-31T08:18:48.758Z,27.69
2022-07-31T08:19:51.307Z,27.65
2022-07-31T08:20:48.757Z,27.60
2022-07-31T08:21:48.758Z,27.59
2022-07-31T08:22:48.758Z,27.63
2022-07-31T08:23:48.758Z,27.65
2022-07-31T08:24:48.760Z,27.67
2022-07-31T08:25:48.763Z,27.60
2022-07-31T08:26:48.762Z,27.63
2022-07-31T08:27:48.762Z,27.62
2022-07-31T08:28:50.492Z,27.67
2022-07-31T08:29:48.763Z,27.65
2022-07-31T08:30:48.768Z,27.59
2022-07-31T08:31:49.540Z,27.60
2022-07-31T08:32:48.766Z,27.69
2022-07-31T08:33:48.765Z,27.59
2022-07-31T08:34:48.771Z,27.65
2022-07-31T08:35:50.731Z,27.66
2022-07-31T08:36:48.771Z,27.69
2022-07-31T08:37:51.231Z,27.62
2022-07-31T08:38:48.772Z,27.66
2022-07-31T08:39:48.770Z,27.67
2022-07-31T08:40:48.772Z,27.63
2022-07-31T08:41:48.770Z,27.60
2022-07-31T08:42:48.772Z,27.59
2022-07-31T08:44:02.605Z,27.63
2022-07-31T08:44:48.774Z,27.55
2022-07-31T08:45:48.775Z,27.67
2022-07-31T08:46:48.777Z,27.63
2022-07-31T08:47:48.776Z,27.63
2022-07-31T08:48:48.863Z,27.67
2022-07-31T08:49:48.776Z,27.59
2022-07-31T08:50:53.383Z,27.59
2022-07-31T08:51:51.400Z,27.60
2022-07-31T08:52:48.778Z,27.57
2022-07-31T08:53:48.779Z,27.59
2022-07-31T08:54:48.781Z,27.66
2022-07-31T08:55:56.484Z,27.59
2022-07-31T08:56:48.781Z,27.55
2022-07-31T08:57:48.781Z,27.54
2022-07-31T08:58:48.786Z,27.60
2022-07-31T08:59:48.783Z,27.59
2022-07-31T09:00:48.844Z,27.63
2022-07-31T09:01:48.785Z,27.66
2022-07-31T09:02:48.788Z,27.54
2022-07-31T09:03:48.788Z,27.57
2022-07-31T09:04:52.418Z,27.63
2022-07-31T09:05:48.786Z,27.65
2022-07-31T09:06:48.789Z,27.62
2022-07-31T09:07:48.789Z,27.60
2022-07-31T09:08:48.790Z,27.57
2022-07-31T09:09:51.417Z,27.66
2022-07-31T09:10:50.202Z,27.59
2022-07-31T09:11:48.793Z,27.60
2022-07-31T09:12:48.793Z,27.63
2022-07-31T09:14:02.118Z,27.62
2022-07-31T09:14:48.796Z,27.67
2022-07-31T09:15:48.795Z,27.63
2022-07-31T09:16:48.795Z,27.62
2022-07-31T09:17:54.038Z,27.65
2022-07-31T09:18:48.798Z,27.65
2022-07-31T09:19:53.698Z,27.65
2022-07-31T09:20:48.799Z,27.66
2022-07-31T09:21:48.799Z,27.65
2022-07-31T09:22:48.800Z,27.62
2022-07-31T09:23:48.799Z,27.67
2022-07-31T09:24:48.800Z,27.57
2022-07-31T09:25:48.802Z,27.63
2022-07-31T09:26:48.805Z,27.65
2022-07-31T09:27:48.807Z,27.60
2022-07-31T09:28:48.811Z,27.69
2022-07-31T09:29:48.805Z,27.66
2022-07-31T09:30:56.061Z,27.59
2022-07-31T09:31:48.807Z,27.63
2022-07-31T09:32:48.807Z,27.66
2022-07-31T09:33:48.809Z,27.60
2022-07-31T09:34:48.809Z,27.69
2022-07-31T09:35:48.808Z,27.66
2022-07-31T09:36:48.810Z,27.63
2022-07-31T09:37:48.810Z,27.69
2022-07-31T09:38:48.812Z,27.65
2022-07-31T09:39:52.319Z,27.63
2022-07-31T09:40:57.119Z,27.72
2022-07-31T09:42:01.175Z,27.69
2022-07-31T09:42:55.144Z,27.70
2022-07-31T09:43:52.029Z,27.72
2022-07-31T09:44:48.854Z,27.66
2022-07-31T09:45:48.815Z,27.70
2022-07-31T09:46:48.817Z,27.66
2022-07-31T09:47:48.817Z,27.60
2022-07-31T09:48:48.895Z,27.66
2022-07-31T09:49:48.901Z,27.72
2022-07-31T09:50:48.819Z,27.63
2022-07-31T09:51:48.819Z,27.65
2022-07-31T09:52:48.822Z,27.67
2022-07-31T09:53:48.822Z,27.60
2022-07-31T09:54:48.974Z,27.65
2022-07-31T09:55:48.823Z,27.75
2022-07-31T09:56:48.823Z,27.67
2022-07-31T09:57:50.232Z,27.66
2022-07-31T09:58:48.826Z,27.74
2022-07-31T09:59:48.826Z,27.69
2022-07-31T10:00:48.894Z,27.67
2022-07-31T10:01:49.108Z,27.69
2022-07-31T10:02:48.829Z,27.74
2022-07-31T10:03:48.829Z,27.74
2022-07-31T10:04:48.830Z,27.65
2022-07-31T10:05:48.830Z,27.67
2022-07-31T10:06:48.861Z,27.67
2022-07-31T10:07:48.832Z,27.65
2022-07-31T10:08:48.835Z,27.66
2022-07-31T10:09:48.831Z,27.79
2022-07-31T10:10:48.834Z,27.67
2022-07-31T10:11:48.836Z,27.67
2022-07-31T10:12:48.835Z,27.69
2022-07-31T10:13:48.838Z,27.70
2022-07-31T10:14:48.837Z,27.69
2022-07-31T10:15:48.837Z,27.69
2022-07-31T10:16:48.839Z,27.78
2022-07-31T10:17:48.841Z,27.74
2022-07-31T10:18:48.840Z,27.75
2022-07-31T10:19:48.842Z,27.70
2022-07-31T10:20:48.842Z,27.69
2022-07-31T10:21:48.842Z,27.69
2022-07-31T10:22:48.844Z,27.78
2022-07-31T10:23:48.842Z,27.78
2022-07-31T10:24:48.843Z,27.77
2022-07-31T10:25:53.829Z,27.70
2022-07-31T10:27:00.411Z,27.72
2022-07-31T10:27:48.845Z,27.67
2022-07-31T10:28:48.847Z,27.69
2022-07-31T10:29:48.854Z,27.77
2022-07-31T10:30:48.856Z,27.66
2022-07-31T10:31:48.849Z,27.67
2022-07-31T10:32:48.851Z,27.67
2022-07-31T10:33:48.850Z,27.70
2022-07-31T10:34:48.853Z,27.82
2022-07-31T10:35:55.917Z,27.77
2022-07-31T10:36:48.854Z,27.75
2022-07-31T10:37:48.854Z,27.75
2022-07-31T10:38:48.855Z,27.77
2022-07-31T10:39:48.856Z,27.72
2022-07-31T10:40:48.854Z,27.70
2022-07-31T10:41:48.861Z,27.77
2022-07-31T10:42:48.857Z,27.77
2022-07-31T10:43:48.859Z,27.75
2022-07-31T10:44:48.858Z,27.72
2022-07-31T10:45:48.859Z,27.70
2022-07-31T10:46:48.860Z,27.74
2022-07-31T10:47:48.967Z,27.75
2022-07-31T10:48:48.915Z,27.82
2022-07-31T10:49:48.876Z,27.75
2022-07-31T10:50:48.868Z,27.75
2022-07-31T10:51:48.863Z,27.84
2022-07-31T10:52:48.863Z,27.81
2022-07-31T10:53:50.927Z,27.81
2022-07-31T10:54:48.866Z,27.81
2022-07-31T10:55:48.868Z,27.78
2022-07-31T10:56:48.866Z,27.79
2022-07-31T10:57:57.162Z,27.79
2022-07-31T10:58:48.869Z,27.79
2022-07-31T10:59:48.869Z,27.78
2022-07-31T11:00:48.871Z,27.81
2022-07-31T11:01:52.813Z,27.81
2022-07-31T11:02:48.871Z,27.74
2022-07-31T11:03:48.876Z,27.82
2022-07-31T11:04:48.873Z,27.70
2022-07-31T11:06:02.002Z,27.79
2022-07-31T11:06:48.873Z,27.81
2022-07-31T11:07:48.875Z,27.78
2022-07-31T11:08:48.875Z,27.74
2022-07-31T11:09:50.821Z,27.75
2022-07-31T11:10:48.878Z,27.78
2022-07-31T11:11:48.880Z,27.79
2022-07-31T11:12:48.887Z,27.77
2022-07-31T11:13:48.895Z,27.72
2022-07-31T11:14:48.881Z,27.81
2022-07-31T11:15:48.888Z,27.74
2022-07-31T11:16:48.884Z,27.70
2022-07-31T11:18:20.823Z,27.81
2022-07-31T11:18:48.890Z,27.82
2022-07-31T11:19:48.884Z,27.75
2022-07-31T11:20:48.884Z,27.77
2022-07-31T11:21:48.889Z,27.82
2022-07-31T11:22:48.887Z,27.69
2022-07-31T11:24:01.133Z,27.78
2022-07-31T11:24:48.887Z,27.82
2022-07-31T11:25:48.889Z,27.75
2022-07-31T11:26:48.889Z,27.70
2022-07-31T11:27:48.891Z,27.84
2022-07-31T11:28:48.891Z,27.79
2022-07-31T11:29:59.800Z,27.75
2022-07-31T11:30:48.892Z,27.77
2022-07-31T11:31:48.897Z,27.81
2022-07-31T11:32:48.894Z,27.70
2022-07-31T11:33:48.895Z,27.79
2022-07-31T11:34:48.897Z,27.85
2022-07-31T11:35:48.901Z,27.74
2022-07-31T11:36:51.451Z,27.87
2022-07-31T11:37:57.800Z,27.87
2022-07-31T11:38:48.898Z,27.90
2022-07-31T11:39:51.696Z,27.87
2022-07-31T11:40:48.899Z,27.81
2022-07-31T11:41:48.902Z,27.81
2022-07-31T11:43:04.739Z,27.81
2022-07-31T11:43:48.907Z,27.69
2022-07-31T11:44:48.902Z,27.84
2022-07-31T11:45:48.905Z,27.92
2022-07-31T11:46:48.906Z,27.78
2022-07-31T11:48:11.956Z,27.78
2022-07-31T11:48:48.938Z,27.82
2022-07-31T11:49:49.603Z,27.90
2022-07-31T11:50:48.911Z,27.81
2022-07-31T11:51:48.909Z,27.93
2022-07-31T11:52:48.909Z,27.78
2022-07-31T11:53:51.172Z,27.85
2022-07-31T11:54:48.911Z,27.82
2022-07-31T11:55:48.921Z,27.84
2022-07-31T11:56:48.912Z,27.87
2022-07-31T11:57:51.661Z,27.70
2022-07-31T11:58:48.915Z,27.72
2022-07-31T11:59:49.597Z,27.93
2022-07-31T12:00:48.915Z,27.87
2022-07-31T12:01:48.916Z,27.72
2022-07-31T12:02:48.973Z,27.74
2022-07-31T12:03:48.919Z,27.74
2022-07-31T12:04:48.919Z,27.72
2022-07-31T12:05:48.922Z,27.81
2022-07-31T12:06:48.920Z,27.82
2022-07-31T12:07:48.922Z,27.87
2022-07-31T12:08:48.922Z,27.78
2022-07-31T12:10:00.247Z,27.75
2022-07-31T12:10:48.923Z,27.85
2022-07-31T12:11:48.924Z,27.90
2022-07-31T12:12:48.926Z,27.85
2022-07-31T12:13:48.926Z,27.84
2022-07-31T12:14:48.929Z,27.96
2022-07-31T12:15:48.928Z,27.74
2022-07-31T12:16:48.931Z,27.82
2022-07-31T12:17:48.930Z,27.88
2022-07-31T12:18:48.929Z,27.84
2022-07-31T12:19:48.934Z,27.75
2022-07-31T12:20:48.931Z,27.74
2022-07-31T12:21:48.933Z,27.94
2022-07-31T12:22:48.933Z,27.88
2022-07-31T12:23:48.936Z,27.85
2022-07-31T12:24:48.936Z,27.87
2022-07-31T12:25:48.936Z,27.85
2022-07-31T12:26:48.936Z,27.90
2022-07-31T12:27:48.938Z,27.79
2022-07-31T12:28:48.938Z,27.99
2022-07-31T12:29:48.940Z,27.93
2022-07-31T12:30:48.940Z,27.92
2022-07-31T12:31:48.943Z,27.90
2022-07-31T12:32:48.962Z,27.78
2022-07-31T12:33:48.942Z,27.88
2022-07-31T12:34:48.943Z,27.85
2022-07-31T12:35:56.074Z,27.92
2022-07-31T12:36:48.943Z,27.92
2022-07-31T12:37:48.946Z,27.97
2022-07-31T12:38:49.291Z,27.93
2022-07-31T12:39:59.289Z,27.93
2022-07-31T12:40:48.946Z,27.88
2022-07-31T12:41:48.949Z,27.88
2022-07-31T12:42:48.948Z,27.87
2022-07-31T12:43:52.288Z,27.81
2022-07-31T12:44:48.951Z,27.81
2022-07-31T12:45:48.952Z,27.92
2022-07-31T12:46:48.953Z,27.90
2022-07-31T12:47:51.675Z,27.88
2022-07-31T12:48:48.993Z,27.93
2022-07-31T12:49:49.005Z,27.84
2022-07-31T12:50:48.954Z,27.88
2022-07-31T12:51:48.960Z,27.90
2022-07-31T12:52:48.957Z,27.88